Kansas City, Missouri
Traffic Map
Current Weather Conditions
Kansas City, Missouri
Clear
Clear
21°
Feels Like: 21°
Wind Chill: 21° Ceiling: Unl
Heat Index: 21° Visibility: 10mi
Dew Point: 14° Wind: 3mph
Humidity: 65% Direction: 240° (WSW)
Pressure: 29.87in Gusts: 0mph
Raw Report DataKMKC 280154Z 24003KT 10SM CLR 21/14 A2987 RMK AO2 SLP110 T02060139
Traffic Incident Summary
Active as of:
Severity:
Category:
InformationThere was an issue retrieving the traffic information for this location. Please try a different location or try again shortly.
Advertisements
Track Severe Weather on mobile